Main page
METAR-TAF:

METAR-TAF

Airports :

Spencer Municipal Airport

Spencer, Iowa, United States

latitude: 43-09-56N, longitude: 095-12-10W, elevation: 1338 ft

Current weather observation

The report was made 43 minutes ago, at 06:53 UTC
Wind 12 mph from the East/Southeast
Temperature 63°F
Humidity 77%
Pressure 30.07 in. Hg
Visibility: 10 miles
Broken clouds at a height of 1900 ft
Overcast at a height of 3000 ft

METAR: KSPW 180653Z AUTO 12010KT 10SM BKN019 OVC030 17/13 A3007 RMK AO2 SLP179 T01670128

Time: 02:36 (07:36 UTC)


TAF: missing

Weather observations and forecasts of more than 4000 airports (METAR and TAF reports).

The available stations are represented by yellow and red dots on the map.

Hover mouse over dot to see the name of the station.

Then click to see weather observations and forecasts.

To change the map : click on the green buttons with a black cross to zoom in, on the green button with a dash to zoom out, or on the green arrows for adjacent maps.


METAR-TAF: